sensor_id;sensor_type;location;lat;lon;timestamp;P1;durP1;ratioP1;P2;durP2;ratioP2
9524;SDS011;15940;48.734;9.112;2022-12-04T00:01:18;35.13;;;21.00;;
9524;SDS011;15940;48.734;9.112;2022-12-04T00:03:50;32.53;;;18.37;;
9524;SDS011;15940;48.734;9.112;2022-12-04T00:06:18;33.77;;;19.80;;
9524;SDS011;15940;48.734;9.112;2022-12-04T00:08:47;32.80;;;18.73;;
9524;SDS011;15940;48.734;9.112;2022-12-04T00:11:17;29.77;;;19.00;;
9524;SDS011;15940;48.734;9.112;2022-12-04T00:13:46;36.20;;;19.93;;
9524;SDS011;15940;48.734;9.112;2022-12-04T00:16:14;30.87;;;17.27;;
9524;SDS011;15940;48.734;9.112;2022-12-04T00:18:43;31.57;;;18.90;;
9524;SDS011;15940;48.734;9.112;2022-12-04T00:21:10;34.27;;;19.53;;
9524;SDS011;15940;48.734;9.112;2022-12-04T00:23:39;36.07;;;20.80;;
9524;SDS011;15940;48.734;9.112;2022-12-04T00:26:08;35.33;;;19.33;;
9524;SDS011;15940;48.734;9.112;2022-12-04T00:28:40;32.30;;;19.33;;
9524;SDS011;15940;48.734;9.112;2022-12-04T00:31:09;37.10;;;20.20;;
9524;SDS011;15940;48.734;9.112;2022-12-04T00:33:38;32.77;;;19.23;;
9524;SDS011;15940;48.734;9.112;2022-12-04T00:36:06;37.03;;;20.93;;
9524;SDS011;15940;48.734;9.112;2022-12-04T00:38:36;34.13;;;19.37;;
9524;SDS011;15940;48.734;9.112;2022-12-04T00:41:04;32.97;;;19.50;;
9524;SDS011;15940;48.734;9.112;2022-12-04T00:43:33;28.07;;;17.90;;
9524;SDS011;15940;48.734;9.112;2022-12-04T00:46:02;33.57;;;19.50;;
9524;SDS011;15940;48.734;9.112;2022-12-04T00:48:29;29.57;;;18.07;;
9524;SDS011;15940;48.734;9.112;2022-12-04T00:50:59;30.13;;;18.60;;
9524;SDS011;15940;48.734;9.112;2022-12-04T00:53:28;26.77;;;17.33;;
9524;SDS011;15940;48.734;9.112;2022-12-04T00:55:55;29.50;;;17.03;;
9524;SDS011;15940;48.734;9.112;2022-12-04T00:58:22;28.73;;;17.50;;
9524;SDS011;15940;48.734;9.112;2022-12-04T01:00:50;29.87;;;18.53;;
9524;SDS011;15940;48.734;9.112;2022-12-04T01:03:28;30.07;;;18.30;;
9524;SDS011;15940;48.734;9.112;2022-12-04T01:05:55;28.90;;;18.30;;
9524;SDS011;15940;48.734;9.112;2022-12-04T01:08:22;47.97;;;26.97;;
9524;SDS011;15940;48.734;9.112;2022-12-04T01:10:49;31.37;;;18.70;;
9524;SDS011;15940;48.734;9.112;2022-12-04T01:13:16;34.67;;;18.73;;
9524;SDS011;15940;48.734;9.112;2022-12-04T01:15:43;38.53;;;20.57;;
9524;SDS011;15940;48.734;9.112;2022-12-04T01:18:11;41.83;;;22.50;;
9524;SDS011;15940;48.734;9.112;2022-12-04T01:20:44;30.67;;;18.77;;
9524;SDS011;15940;48.734;9.112;2022-12-04T01:23:13;28.20;;;17.70;;
9524;SDS011;15940;48.734;9.112;2022-12-04T01:25:48;25.10;;;16.30;;
9524;SDS011;15940;48.734;9.112;2022-12-04T01:28:17;27.43;;;17.00;;
9524;SDS011;15940;48.734;9.112;2022-12-04T01:30:44;25.83;;;16.20;;
9524;SDS011;15940;48.734;9.112;2022-12-04T01:33:11;23.30;;;15.97;;
9524;SDS011;15940;48.734;9.112;2022-12-04T01:35:38;24.97;;;16.70;;
9524;SDS011;15940;48.734;9.112;2022-12-04T01:38:06;26.00;;;16.40;;
9524;SDS011;15940;48.734;9.112;2022-12-04T01:40:33;26.33;;;16.70;;
9524;SDS011;15940;48.734;9.112;2022-12-04T01:43:00;26.30;;;16.53;;
9524;SDS011;15940;48.734;9.112;2022-12-04T01:45:36;24.00;;;16.63;;
9524;SDS011;15940;48.734;9.112;2022-12-04T01:48:08;28.53;;;15.73;;
9524;SDS011;15940;48.734;9.112;2022-12-04T01:50:44;26.73;;;16.87;;
9524;SDS011;15940;48.734;9.112;2022-12-04T01:53:15;24.67;;;15.67;;
9524;SDS011;15940;48.734;9.112;2022-12-04T01:55:43;24.60;;;16.03;;
9524;SDS011;15940;48.734;9.112;2022-12-04T01:58:11;26.20;;;15.43;;
9524;SDS011;15940;48.734;9.112;2022-12-04T02:00:39;19.97;;;14.40;;
9524;SDS011;15940;48.734;9.112;2022-12-04T02:03:06;22.97;;;15.47;;
9524;SDS011;15940;48.734;9.112;2022-12-04T02:05:33;23.47;;;15.70;;
9524;SDS011;15940;48.734;9.112;2022-12-04T02:08:00;22.47;;;15.30;;
9524;SDS011;15940;48.734;9.112;2022-12-04T02:10:33;23.87;;;15.83;;
9524;SDS011;15940;48.734;9.112;2022-12-04T02:13:11;23.27;;;15.47;;
9524;SDS011;15940;48.734;9.112;2022-12-04T02:15:47;22.80;;;15.67;;
9524;SDS011;15940;48.734;9.112;2022-12-04T02:18:26;23.07;;;16.90;;
9524;SDS011;15940;48.734;9.112;2022-12-04T02:21:02;24.13;;;16.33;;
9524;SDS011;15940;48.734;9.112;2022-12-04T02:23:39;25.97;;;17.07;;
9524;SDS011;15940;48.734;9.112;2022-12-04T02:26:32;25.27;;;16.90;;
9524;SDS011;15940;48.734;9.112;2022-12-04T02:29:12;26.23;;;16.60;;
9524;SDS011;15940;48.734;9.112;2022-12-04T02:31:49;25.40;;;16.70;;
9524;SDS011;15940;48.734;9.112;2022-12-04T02:34:24;25.30;;;16.80;;
9524;SDS011;15940;48.734;9.112;2022-12-04T02:36:54;27.20;;;17.63;;
9524;SDS011;15940;48.734;9.112;2022-12-04T02:39:29;26.37;;;18.07;;
9524;SDS011;15940;48.734;9.112;2022-12-04T02:42:07;30.10;;;18.27;;
9524;SDS011;15940;48.734;9.112;2022-12-04T02:44:41;28.17;;;18.03;;
9524;SDS011;15940;48.734;9.112;2022-12-04T02:47:13;27.63;;;17.77;;
9524;SDS011;15940;48.734;9.112;2022-12-04T02:49:47;27.90;;;17.43;;
9524;SDS011;15940;48.734;9.112;2022-12-04T02:52:20;25.50;;;17.03;;
9524;SDS011;15940;48.734;9.112;2022-12-04T02:54:55;27.07;;;18.23;;
9524;SDS011;15940;48.734;9.112;2022-12-04T02:57:27;30.13;;;18.93;;
9524;SDS011;15940;48.734;9.112;2022-12-04T03:00:03;26.60;;;18.57;;
9524;SDS011;15940;48.734;9.112;2022-12-04T03:02:34;26.77;;;17.13;;
9524;SDS011;15940;48.734;9.112;2022-12-04T03:05:09;27.23;;;17.63;;
9524;SDS011;15940;48.734;9.112;2022-12-04T03:07:44;26.87;;;16.90;;
9524;SDS011;15940;48.734;9.112;2022-12-04T03:10:16;25.40;;;16.93;;
9524;SDS011;15940;48.734;9.112;2022-12-04T03:12:48;29.90;;;17.70;;
9524;SDS011;15940;48.734;9.112;2022-12-04T03:15:22;24.50;;;16.50;;
9524;SDS011;15940;48.734;9.112;2022-12-04T03:17:54;26.67;;;17.13;;
9524;SDS011;15940;48.734;9.112;2022-12-04T03:20:27;26.13;;;17.83;;
9524;SDS011;15940;48.734;9.112;2022-12-04T03:22:58;27.10;;;17.83;;
9524;SDS011;15940;48.734;9.112;2022-12-04T03:25:31;28.37;;;18.17;;
9524;SDS011;15940;48.734;9.112;2022-12-04T03:28:04;29.50;;;18.67;;
9524;SDS011;15940;48.734;9.112;2022-12-04T03:30:38;30.47;;;18.80;;
9524;SDS011;15940;48.734;9.112;2022-12-04T03:33:10;32.53;;;19.93;;
9524;SDS011;15940;48.734;9.112;2022-12-04T03:35:43;29.07;;;18.17;;
9524;SDS011;15940;48.734;9.112;2022-12-04T03:38:15;29.90;;;18.83;;
9524;SDS011;15940;48.734;9.112;2022-12-04T03:40:51;26.67;;;17.97;;
9524;SDS011;15940;48.734;9.112;2022-12-04T03:43:25;29.47;;;18.17;;
9524;SDS011;15940;48.734;9.112;2022-12-04T03:46:02;29.60;;;17.47;;
9524;SDS011;15940;48.734;9.112;2022-12-04T03:48:36;31.47;;;18.80;;
9524;SDS011;15940;48.734;9.112;2022-12-04T03:51:08;28.50;;;17.97;;
9524;SDS011;15940;48.734;9.112;2022-12-04T03:53:43;29.07;;;17.70;;
9524;SDS011;15940;48.734;9.112;2022-12-04T03:56:17;25.60;;;16.10;;
9524;SDS011;15940;48.734;9.112;2022-12-04T03:58:49;29.33;;;16.60;;
9524;SDS011;15940;48.734;9.112;2022-12-04T04:01:25;26.57;;;16.67;;
9524;SDS011;15940;48.734;9.112;2022-12-04T04:03:57;33.47;;;17.37;;
9524;SDS011;15940;48.734;9.112;2022-12-04T04:06:29;26.53;;;17.03;;
9524;SDS011;15940;48.734;9.112;2022-12-04T04:09:04;26.90;;;16.80;;
9524;SDS011;15940;48.734;9.112;2022-12-04T04:11:37;26.50;;;17.10;;
9524;SDS011;15940;48.734;9.112;2022-12-04T04:14:10;28.77;;;17.53;;
9524;SDS011;15940;48.734;9.112;2022-12-04T04:17:01;28.73;;;17.17;;
9524;SDS011;15940;48.734;9.112;2022-12-04T04:19:50;28.47;;;16.53;;
9524;SDS011;15940;48.734;9.112;2022-12-04T04:22:42;28.43;;;16.53;;
9524;SDS011;15940;48.734;9.112;2022-12-04T04:25:29;25.03;;;15.93;;
9524;SDS011;15940;48.734;9.112;2022-12-04T04:27:57;24.80;;;15.13;;
9524;SDS011;15940;48.734;9.112;2022-12-04T04:30:24;24.60;;;15.47;;
9524;SDS011;15940;48.734;9.112;2022-12-04T04:32:57;23.77;;;14.43;;
9524;SDS011;15940;48.734;9.112;2022-12-04T04:35:32;22.93;;;14.57;;
9524;SDS011;15940;48.734;9.112;2022-12-04T04:38:11;21.67;;;13.83;;
9524;SDS011;15940;48.734;9.112;2022-12-04T04:40:49;21.87;;;14.50;;
9524;SDS011;15940;48.734;9.112;2022-12-04T04:44:31;24.17;;;14.77;;
9524;SDS011;15940;48.734;9.112;2022-12-04T04:47:06;27.47;;;14.07;;
9524;SDS011;15940;48.734;9.112;2022-12-04T04:49:41;22.23;;;13.07;;
9524;SDS011;15940;48.734;9.112;2022-12-04T04:52:11;20.87;;;12.73;;
9524;SDS011;15940;48.734;9.112;2022-12-04T04:54:38;23.80;;;13.53;;
9524;SDS011;15940;48.734;9.112;2022-12-04T04:57:06;26.67;;;14.80;;
9524;SDS011;15940;48.734;9.112;2022-12-04T04:59:32;24.83;;;15.03;;
9524;SDS011;15940;48.734;9.112;2022-12-04T05:01:59;27.03;;;15.43;;
9524;SDS011;15940;48.734;9.112;2022-12-04T05:04:26;25.90;;;15.07;;
9524;SDS011;15940;48.734;9.112;2022-12-04T05:06:55;26.87;;;14.87;;
9524;SDS011;15940;48.734;9.112;2022-12-04T05:09:21;26.43;;;15.10;;
9524;SDS011;15940;48.734;9.112;2022-12-04T05:11:48;22.97;;;14.07;;
9524;SDS011;15940;48.734;9.112;2022-12-04T05:14:15;25.70;;;14.67;;
9524;SDS011;15940;48.734;9.112;2022-12-04T05:16:42;25.17;;;14.63;;
9524;SDS011;15940;48.734;9.112;2022-12-04T05:19:09;22.60;;;12.90;;
9524;SDS011;15940;48.734;9.112;2022-12-04T05:21:55;27.30;;;15.17;;
9524;SDS011;15940;48.734;9.112;2022-12-04T05:24:22;24.47;;;14.57;;
9524;SDS011;15940;48.734;9.112;2022-12-04T05:26:49;26.47;;;15.00;;
9524;SDS011;15940;48.734;9.112;2022-12-04T05:29:16;27.57;;;14.80;;
9524;SDS011;15940;48.734;9.112;2022-12-04T05:31:43;25.60;;;15.10;;
9524;SDS011;15940;48.734;9.112;2022-12-04T05:34:10;26.40;;;15.60;;
9524;SDS011;15940;48.734;9.112;2022-12-04T05:36:36;25.00;;;14.90;;
9524;SDS011;15940;48.734;9.112;2022-12-04T05:39:05;25.10;;;14.43;;
9524;SDS011;15940;48.734;9.112;2022-12-04T05:41:32;27.17;;;14.67;;
9524;SDS011;15940;48.734;9.112;2022-12-04T05:43:59;24.80;;;14.97;;
9524;SDS011;15940;48.734;9.112;2022-12-04T05:46:26;27.00;;;15.13;;
9524;SDS011;15940;48.734;9.112;2022-12-04T05:48:52;25.13;;;14.93;;
9524;SDS011;15940;48.734;9.112;2022-12-04T05:51:19;21.00;;;14.30;;
9524;SDS011;15940;48.734;9.112;2022-12-04T05:53:46;24.17;;;14.23;;
9524;SDS011;15940;48.734;9.112;2022-12-04T05:56:17;25.63;;;14.33;;
9524;SDS011;15940;48.734;9.112;2022-12-04T05:58:44;24.53;;;13.70;;
9524;SDS011;15940;48.734;9.112;2022-12-04T06:01:12;24.00;;;14.13;;
9524;SDS011;15940;48.734;9.112;2022-12-04T06:03:41;22.47;;;13.47;;
9524;SDS011;15940;48.734;9.112;2022-12-04T06:06:10;24.17;;;14.33;;
9524;SDS011;15940;48.734;9.112;2022-12-04T06:08:38;26.33;;;15.73;;
9524;SDS011;15940;48.734;9.112;2022-12-04T06:11:09;28.13;;;16.87;;
9524;SDS011;15940;48.734;9.112;2022-12-04T06:13:40;24.40;;;15.20;;
9524;SDS011;15940;48.734;9.112;2022-12-04T06:16:11;22.83;;;14.30;;
9524;SDS011;15940;48.734;9.112;2022-12-04T06:18:39;24.70;;;14.83;;
9524;SDS011;15940;48.734;9.112;2022-12-04T06:21:06;22.87;;;13.93;;
9524;SDS011;15940;48.734;9.112;2022-12-04T06:23:34;23.87;;;14.37;;
9524;SDS011;15940;48.734;9.112;2022-12-04T06:26:02;22.87;;;13.97;;
9524;SDS011;15940;48.734;9.112;2022-12-04T06:28:30;25.47;;;14.37;;
9524;SDS011;15940;48.734;9.112;2022-12-04T06:31:00;25.27;;;14.03;;
9524;SDS011;15940;48.734;9.112;2022-12-04T06:33:29;23.70;;;12.90;;
9524;SDS011;15940;48.734;9.112;2022-12-04T06:35:57;24.80;;;14.00;;
9524;SDS011;15940;48.734;9.112;2022-12-04T06:38:25;22.77;;;14.00;;
9524;SDS011;15940;48.734;9.112;2022-12-04T06:40:52;20.60;;;12.83;;
9524;SDS011;15940;48.734;9.112;2022-12-04T06:43:19;22.67;;;13.67;;
9524;SDS011;15940;48.734;9.112;2022-12-04T06:45:46;22.43;;;13.60;;
9524;SDS011;15940;48.734;9.112;2022-12-04T06:48:14;20.43;;;13.60;;
9524;SDS011;15940;48.734;9.112;2022-12-04T06:50:41;20.53;;;12.87;;
9524;SDS011;15940;48.734;9.112;2022-12-04T06:53:08;20.77;;;12.77;;
9524;SDS011;15940;48.734;9.112;2022-12-04T06:55:35;21.97;;;12.97;;
9524;SDS011;15940;48.734;9.112;2022-12-04T06:58:02;20.60;;;11.87;;
9524;SDS011;15940;48.734;9.112;2022-12-04T07:00:29;21.70;;;13.40;;
9524;SDS011;15940;48.734;9.112;2022-12-04T07:02:56;24.07;;;14.10;;
9524;SDS011;15940;48.734;9.112;2022-12-04T07:05:24;22.73;;;13.73;;
9524;SDS011;15940;48.734;9.112;2022-12-04T07:07:52;21.23;;;12.70;;
9524;SDS011;15940;48.734;9.112;2022-12-04T07:10:19;22.27;;;12.90;;
9524;SDS011;15940;48.734;9.112;2022-12-04T07:12:46;25.40;;;14.07;;
9524;SDS011;15940;48.734;9.112;2022-12-04T07:15:13;23.53;;;14.17;;
9524;SDS011;15940;48.734;9.112;2022-12-04T07:17:40;23.90;;;13.67;;
9524;SDS011;15940;48.734;9.112;2022-12-04T07:20:08;23.10;;;13.73;;
9524;SDS011;15940;48.734;9.112;2022-12-04T07:22:37;23.80;;;14.03;;
9524;SDS011;15940;48.734;9.112;2022-12-04T07:25:04;22.30;;;13.07;;
9524;SDS011;15940;48.734;9.112;2022-12-04T07:27:31;20.90;;;13.83;;
9524;SDS011;15940;48.734;9.112;2022-12-04T07:29:58;22.50;;;13.03;;
9524;SDS011;15940;48.734;9.112;2022-12-04T07:32:25;21.37;;;13.37;;
9524;SDS011;15940;48.734;9.112;2022-12-04T07:34:52;22.43;;;13.17;;
9524;SDS011;15940;48.734;9.112;2022-12-04T07:37:19;24.03;;;14.73;;
9524;SDS011;15940;48.734;9.112;2022-12-04T07:39:49;24.17;;;13.77;;
9524;SDS011;15940;48.734;9.112;2022-12-04T07:42:16;24.53;;;13.73;;
9524;SDS011;15940;48.734;9.112;2022-12-04T07:44:43;21.80;;;13.80;;
9524;SDS011;15940;48.734;9.112;2022-12-04T07:47:10;21.10;;;12.97;;
9524;SDS011;15940;48.734;9.112;2022-12-04T07:49:38;21.30;;;13.77;;
9524;SDS011;15940;48.734;9.112;2022-12-04T07:52:05;22.60;;;13.77;;
9524;SDS011;15940;48.734;9.112;2022-12-04T07:54:32;22.93;;;13.70;;
9524;SDS011;15940;48.734;9.112;2022-12-04T07:57:02;19.27;;;12.80;;
9524;SDS011;15940;48.734;9.112;2022-12-04T07:59:29;19.13;;;12.57;;
9524;SDS011;15940;48.734;9.112;2022-12-04T08:01:56;21.30;;;13.87;;
9524;SDS011;15940;48.734;9.112;2022-12-04T08:04:23;19.90;;;11.77;;
9524;SDS011;15940;48.734;9.112;2022-12-04T08:06:50;21.50;;;12.43;;
9524;SDS011;15940;48.734;9.112;2022-12-04T08:09:17;19.80;;;13.00;;
9524;SDS011;15940;48.734;9.112;2022-12-04T08:11:44;19.97;;;12.80;;
9524;SDS011;15940;48.734;9.112;2022-12-04T08:14:12;21.70;;;12.83;;
9524;SDS011;15940;48.734;9.112;2022-12-04T08:16:39;21.10;;;13.57;;
9524;SDS011;15940;48.734;9.112;2022-12-04T08:19:08;20.97;;;13.07;;
9524;SDS011;15940;48.734;9.112;2022-12-04T08:21:35;20.50;;;13.23;;
9524;SDS011;15940;48.734;9.112;2022-12-04T08:24:02;23.63;;;14.00;;
9524;SDS011;15940;48.734;9.112;2022-12-04T08:26:29;23.37;;;13.40;;
9524;SDS011;15940;48.734;9.112;2022-12-04T08:28:58;20.97;;;12.97;;
9524;SDS011;15940;48.734;9.112;2022-12-04T08:31:28;21.10;;;12.77;;
9524;SDS011;15940;48.734;9.112;2022-12-04T08:33:58;20.20;;;13.20;;
9524;SDS011;15940;48.734;9.112;2022-12-04T08:36:27;20.60;;;12.63;;
9524;SDS011;15940;48.734;9.112;2022-12-04T08:38:54;21.37;;;12.80;;
9524;SDS011;15940;48.734;9.112;2022-12-04T08:41:22;20.23;;;12.30;;
9524;SDS011;15940;48.734;9.112;2022-12-04T08:43:51;19.70;;;13.17;;
9524;SDS011;15940;48.734;9.112;2022-12-04T08:46:20;19.57;;;12.90;;
9524;SDS011;15940;48.734;9.112;2022-12-04T08:48:49;18.80;;;12.07;;
9524;SDS011;15940;48.734;9.112;2022-12-04T08:51:18;19.10;;;12.00;;
9524;SDS011;15940;48.734;9.112;2022-12-04T08:53:47;21.30;;;14.07;;
9524;SDS011;15940;48.734;9.112;2022-12-04T08:56:18;22.23;;;12.20;;
9524;SDS011;15940;48.734;9.112;2022-12-04T08:58:45;19.33;;;11.87;;
9524;SDS011;15940;48.734;9.112;2022-12-04T09:01:12;20.30;;;12.47;;
9524;SDS011;15940;48.734;9.112;2022-12-04T09:03:40;21.10;;;11.40;;
9524;SDS011;15940;48.734;9.112;2022-12-04T09:06:10;19.60;;;11.93;;
9524;SDS011;15940;48.734;9.112;2022-12-04T09:08:39;19.87;;;12.33;;
9524;SDS011;15940;48.734;9.112;2022-12-04T09:11:08;20.17;;;12.40;;
9524;SDS011;15940;48.734;9.112;2022-12-04T09:13:38;18.23;;;11.47;;
9524;SDS011;15940;48.734;9.112;2022-12-04T09:16:06;20.87;;;12.40;;
9524;SDS011;15940;48.734;9.112;2022-12-04T09:18:36;20.53;;;12.23;;
9524;SDS011;15940;48.734;9.112;2022-12-04T09:21:05;16.27;;;10.70;;
9524;SDS011;15940;48.734;9.112;2022-12-04T09:23:35;19.13;;;12.13;;
9524;SDS011;15940;48.734;9.112;2022-12-04T09:26:05;23.10;;;13.87;;
9524;SDS011;15940;48.734;9.112;2022-12-04T09:28:45;21.83;;;12.43;;
9524;SDS011;15940;48.734;9.112;2022-12-04T09:31:13;20.97;;;13.50;;
9524;SDS011;15940;48.734;9.112;2022-12-04T09:33:41;21.07;;;12.63;;
9524;SDS011;15940;48.734;9.112;2022-12-04T09:36:08;22.87;;;13.10;;
9524;SDS011;15940;48.734;9.112;2022-12-04T09:38:41;20.17;;;13.03;;
9524;SDS011;15940;48.734;9.112;2022-12-04T09:41:14;22.17;;;12.87;;
9524;SDS011;15940;48.734;9.112;2022-12-04T09:43:59;20.83;;;12.43;;
9524;SDS011;15940;48.734;9.112;2022-12-04T09:46:30;21.23;;;12.80;;
9524;SDS011;15940;48.734;9.112;2022-12-04T09:49:01;20.00;;;13.10;;
9524;SDS011;15940;48.734;9.112;2022-12-04T09:51:36;20.23;;;12.57;;
9524;SDS011;15940;48.734;9.112;2022-12-04T09:54:08;21.87;;;14.30;;
9524;SDS011;15940;48.734;9.112;2022-12-04T09:56:49;24.47;;;15.10;;
9524;SDS011;15940;48.734;9.112;2022-12-04T09:59:20;25.47;;;16.07;;
9524;SDS011;15940;48.734;9.112;2022-12-04T10:01:52;21.67;;;14.30;;
9524;SDS011;15940;48.734;9.112;2022-12-04T10:04:26;24.47;;;15.90;;
9524;SDS011;15940;48.734;9.112;2022-12-04T10:06:54;42.53;;;24.20;;
9524;SDS011;15940;48.734;9.112;2022-12-04T10:09:33;22.10;;;13.90;;
9524;SDS011;15940;48.734;9.112;2022-12-04T10:12:13;22.47;;;14.03;;
9524;SDS011;15940;48.734;9.112;2022-12-04T10:14:55;23.37;;;13.63;;
9524;SDS011;15940;48.734;9.112;2022-12-04T10:17:44;24.50;;;14.63;;
9524;SDS011;15940;48.734;9.112;2022-12-04T10:20:41;25.63;;;14.67;;
9524;SDS011;15940;48.734;9.112;2022-12-04T10:23:24;21.67;;;13.07;;
9524;SDS011;15940;48.734;9.112;2022-12-04T10:26:10;21.33;;;12.90;;
9524;SDS011;15940;48.734;9.112;2022-12-04T10:28:42;18.83;;;13.00;;
9524;SDS011;15940;48.734;9.112;2022-12-04T10:31:14;24.13;;;16.83;;
9524;SDS011;15940;48.734;9.112;2022-12-04T10:33:42;19.10;;;13.03;;
9524;SDS011;15940;48.734;9.112;2022-12-04T10:36:14;21.03;;;13.60;;
9524;SDS011;15940;48.734;9.112;2022-12-04T10:38:45;20.73;;;12.90;;
9524;SDS011;15940;48.734;9.112;2022-12-04T10:41:19;18.87;;;12.13;;
9524;SDS011;15940;48.734;9.112;2022-12-04T10:43:54;16.77;;;11.50;;
9524;SDS011;15940;48.734;9.112;2022-12-04T10:46:21;16.93;;;12.80;;
9524;SDS011;15940;48.734;9.112;2022-12-04T10:48:52;17.20;;;12.20;;
9524;SDS011;15940;48.734;9.112;2022-12-04T10:51:24;20.57;;;13.30;;
9524;SDS011;15940;48.734;9.112;2022-12-04T10:53:51;19.67;;;13.47;;
9524;SDS011;15940;48.734;9.112;2022-12-04T10:56:20;18.13;;;13.47;;
9524;SDS011;15940;48.734;9.112;2022-12-04T10:58:56;20.17;;;12.93;;
9524;SDS011;15940;48.734;9.112;2022-12-04T11:01:26;19.13;;;13.13;;
9524;SDS011;15940;48.734;9.112;2022-12-04T11:03:56;21.97;;;13.60;;
9524;SDS011;15940;48.734;9.112;2022-12-04T11:06:27;21.73;;;14.30;;
9524;SDS011;15940;48.734;9.112;2022-12-04T11:08:55;24.07;;;14.57;;
9524;SDS011;15940;48.734;9.112;2022-12-04T11:11:27;23.27;;;15.10;;
9524;SDS011;15940;48.734;9.112;2022-12-04T11:14:00;19.20;;;14.17;;
9524;SDS011;15940;48.734;9.112;2022-12-04T11:16:32;22.40;;;15.00;;
9524;SDS011;15940;48.734;9.112;2022-12-04T11:19:16;24.87;;;16.03;;
9524;SDS011;15940;48.734;9.112;2022-12-04T11:21:46;25.20;;;15.63;;
9524;SDS011;15940;48.734;9.112;2022-12-04T11:24:16;23.67;;;15.60;;
9524;SDS011;15940;48.734;9.112;2022-12-04T11:26:49;23.90;;;16.07;;
9524;SDS011;15940;48.734;9.112;2022-12-04T11:29:18;22.77;;;15.43;;
9524;SDS011;15940;48.734;9.112;2022-12-04T11:31:55;22.07;;;14.37;;
9524;SDS011;15940;48.734;9.112;2022-12-04T11:34:23;21.83;;;15.70;;
9524;SDS011;15940;48.734;9.112;2022-12-04T11:36:58;30.13;;;17.07;;
9524;SDS011;15940;48.734;9.112;2022-12-04T11:39:27;22.83;;;15.33;;
9524;SDS011;15940;48.734;9.112;2022-12-04T11:42:05;24.03;;;15.83;;
9524;SDS011;15940;48.734;9.112;2022-12-04T11:44:49;24.17;;;15.57;;
9524;SDS011;15940;48.734;9.112;2022-12-04T11:47:19;21.67;;;15.03;;
9524;SDS011;15940;48.734;9.112;2022-12-04T11:49:56;23.83;;;16.17;;
9524;SDS011;15940;48.734;9.112;2022-12-04T11:52:47;23.23;;;16.00;;
9524;SDS011;15940;48.734;9.112;2022-12-04T11:55:31;22.53;;;15.63;;
9524;SDS011;15940;48.734;9.112;2022-12-04T11:58:14;25.53;;;16.63;;
9524;SDS011;15940;48.734;9.112;2022-12-04T12:01:12;25.57;;;16.47;;
9524;SDS011;15940;48.734;9.112;2022-12-04T12:03:55;26.30;;;16.83;;
9524;SDS011;15940;48.734;9.112;2022-12-04T12:06:47;28.63;;;17.70;;
9524;SDS011;15940;48.734;9.112;2022-12-04T12:09:26;30.00;;;18.83;;
9524;SDS011;15940;48.734;9.112;2022-12-04T12:12:04;29.23;;;18.80;;
9524;SDS011;15940;48.734;9.112;2022-12-04T12:14:39;28.67;;;18.00;;
9524;SDS011;15940;48.734;9.112;2022-12-04T12:17:16;29.23;;;17.97;;
9524;SDS011;15940;48.734;9.112;2022-12-04T12:20:02;30.00;;;18.93;;
9524;SDS011;15940;48.734;9.112;2022-12-04T12:22:41;28.53;;;18.83;;
9524;SDS011;15940;48.734;9.112;2022-12-04T12:25:49;27.03;;;17.33;;
9524;SDS011;15940;48.734;9.112;2022-12-04T12:28:33;28.13;;;16.60;;
9524;SDS011;15940;48.734;9.112;2022-12-04T12:31:24;26.83;;;16.20;;
9524;SDS011;15940;48.734;9.112;2022-12-04T12:34:12;25.80;;;15.43;;
9524;SDS011;15940;48.734;9.112;2022-12-04T12:36:48;24.33;;;16.00;;
9524;SDS011;15940;48.734;9.112;2022-12-04T12:39:19;25.93;;;15.50;;
9524;SDS011;15940;48.734;9.112;2022-12-04T12:41:51;29.00;;;17.70;;
9524;SDS011;15940;48.734;9.112;2022-12-04T12:44:22;27.10;;;17.60;;
9524;SDS011;15940;48.734;9.112;2022-12-04T12:46:58;27.43;;;17.10;;
9524;SDS011;15940;48.734;9.112;2022-12-04T12:49:33;26.30;;;16.47;;
9524;SDS011;15940;48.734;9.112;2022-12-04T12:52:12;29.07;;;17.53;;
9524;SDS011;15940;48.734;9.112;2022-12-04T12:54:47;26.87;;;17.17;;
9524;SDS011;15940;48.734;9.112;2022-12-04T12:57:21;32.30;;;17.90;;
9524;SDS011;15940;48.734;9.112;2022-12-04T12:59:54;30.27;;;17.40;;
9524;SDS011;15940;48.734;9.112;2022-12-04T13:02:29;27.90;;;18.17;;
9524;SDS011;15940;48.734;9.112;2022-12-04T13:05:04;29.63;;;17.17;;
9524;SDS011;15940;48.734;9.112;2022-12-04T13:07:39;25.80;;;16.47;;
9524;SDS011;15940;48.734;9.112;2022-12-04T13:10:15;28.70;;;17.30;;
9524;SDS011;15940;48.734;9.112;2022-12-04T13:12:47;29.10;;;17.73;;
9524;SDS011;15940;48.734;9.112;2022-12-04T13:15:20;28.07;;;17.17;;
9524;SDS011;15940;48.734;9.112;2022-12-04T13:17:53;28.87;;;17.30;;
9524;SDS011;15940;48.734;9.112;2022-12-04T13:20:23;27.43;;;16.23;;
9524;SDS011;15940;48.734;9.112;2022-12-04T13:23:02;25.73;;;16.57;;
9524;SDS011;15940;48.734;9.112;2022-12-04T13:25:47;22.70;;;14.63;;
9524;SDS011;15940;48.734;9.112;2022-12-04T13:28:28;24.87;;;15.87;;
9524;SDS011;15940;48.734;9.112;2022-12-04T13:31:13;25.37;;;16.27;;
9524;SDS011;15940;48.734;9.112;2022-12-04T13:34:01;24.57;;;15.33;;
9524;SDS011;15940;48.734;9.112;2022-12-04T13:36:56;25.47;;;15.43;;
9524;SDS011;15940;48.734;9.112;2022-12-04T13:43:09;23.00;;;15.27;;
9524;SDS011;15940;48.734;9.112;2022-12-04T13:45:49;22.37;;;14.13;;
9524;SDS011;15940;48.734;9.112;2022-12-04T13:48:29;22.27;;;14.60;;
9524;SDS011;15940;48.734;9.112;2022-12-04T13:51:07;24.27;;;15.90;;
9524;SDS011;15940;48.734;9.112;2022-12-04T13:54:00;23.70;;;15.70;;
9524;SDS011;15940;48.734;9.112;2022-12-04T13:56:49;24.20;;;15.60;;
9524;SDS011;15940;48.734;9.112;2022-12-04T13:59:19;22.90;;;14.40;;
9524;SDS011;15940;48.734;9.112;2022-12-04T14:02:03;22.97;;;13.83;;
9524;SDS011;15940;48.734;9.112;2022-12-04T14:04:53;23.53;;;13.77;;
9524;SDS011;15940;48.734;9.112;2022-12-04T14:07:26;22.03;;;14.33;;
9524;SDS011;15940;48.734;9.112;2022-12-04T14:09:57;22.47;;;13.90;;
9524;SDS011;15940;48.734;9.112;2022-12-04T14:12:29;22.43;;;13.73;;
9524;SDS011;15940;48.734;9.112;2022-12-04T14:15:01;20.90;;;13.73;;
9524;SDS011;15940;48.734;9.112;2022-12-04T14:17:32;20.50;;;13.47;;
9524;SDS011;15940;48.734;9.112;2022-12-04T14:20:01;19.97;;;13.13;;
9524;SDS011;15940;48.734;9.112;2022-12-04T14:22:40;20.37;;;13.47;;
9524;SDS011;15940;48.734;9.112;2022-12-04T14:25:32;22.53;;;12.93;;
9524;SDS011;15940;48.734;9.112;2022-12-04T14:28:12;20.73;;;12.63;;
9524;SDS011;15940;48.734;9.112;2022-12-04T14:31:01;18.47;;;12.53;;
9524;SDS011;15940;48.734;9.112;2022-12-04T14:33:41;19.97;;;12.73;;
9524;SDS011;15940;48.734;9.112;2022-12-04T14:36:15;23.67;;;12.97;;
9524;SDS011;15940;48.734;9.112;2022-12-04T14:38:51;18.60;;;12.17;;
9524;SDS011;15940;48.734;9.112;2022-12-04T14:41:34;21.47;;;12.63;;
9524;SDS011;15940;48.734;9.112;2022-12-04T14:44:01;18.83;;;12.50;;
9524;SDS011;15940;48.734;9.112;2022-12-04T14:46:31;19.27;;;12.67;;
9524;SDS011;15940;48.734;9.112;2022-12-04T14:49:13;18.67;;;12.30;;
9524;SDS011;15940;48.734;9.112;2022-12-04T14:51:53;19.37;;;12.23;;
9524;SDS011;15940;48.734;9.112;2022-12-04T14:54:34;21.20;;;12.87;;
9524;SDS011;15940;48.734;9.112;2022-12-04T14:57:12;17.67;;;11.70;;
9524;SDS011;15940;48.734;9.112;2022-12-04T14:59:59;20.70;;;13.10;;
9524;SDS011;15940;48.734;9.112;2022-12-04T15:02:27;18.13;;;11.37;;
9524;SDS011;15940;48.734;9.112;2022-12-04T15:05:07;18.23;;;11.83;;
9524;SDS011;15940;48.734;9.112;2022-12-04T15:07:35;20.33;;;12.77;;
9524;SDS011;15940;48.734;9.112;2022-12-04T15:10:16;18.43;;;11.90;;